createdAt,value
2022-10-23T00:50:24.419Z,2.97
2022-10-23T00:52:30.754Z,2.90
2022-10-23T00:54:38.078Z,2.70
2022-10-23T00:56:44.821Z,2.90
2022-10-23T00:58:48.210Z,3.43
2022-10-23T01:00:53.516Z,5.33
2022-10-23T01:02:58.372Z,2.80
2022-10-23T01:05:01.831Z,3.70
2022-10-23T01:07:12.419Z,3.77
2022-10-23T01:09:23.721Z,2.90
2022-10-23T01:11:35.471Z,4.37
2022-10-23T01:13:45.824Z,2.87
2022-10-23T01:15:54.556Z,4.03
2022-10-23T01:18:05.410Z,3.43
2022-10-23T01:20:20.598Z,4.00
2022-10-23T01:22:48.067Z,4.70
2022-10-23T01:24:59.332Z,4.50
2022-10-23T01:27:16.359Z,3.17
2022-10-23T01:29:25.654Z,4.40
2022-10-23T01:31:35.939Z,3.90
2022-10-23T01:33:43.956Z,5.13
2022-10-23T01:35:50.413Z,12.83
2022-10-23T01:37:57.223Z,3.63
2022-10-23T01:40:06.737Z,2.97
2022-10-23T01:42:17.335Z,3.20
2022-10-23T01:44:24.834Z,15.33
2022-10-23T01:46:29.128Z,3.33
2022-10-23T01:48:35.698Z,2.30
2022-10-23T01:50:41.301Z,2.83
2022-10-23T01:52:45.675Z,5.10
2022-10-23T01:54:54.117Z,2.70
2022-10-23T01:56:59.412Z,3.63
2022-10-23T01:59:11.560Z,4.77
2022-10-23T02:01:19.434Z,7.33
2022-10-23T02:03:30.727Z,4.03
2022-10-23T02:05:34.503Z,2.70
2022-10-23T02:07:39.877Z,4.33
2022-10-23T02:09:43.579Z,4.77
2022-10-23T02:11:54.870Z,3.17
2022-10-23T02:14:04.773Z,4.60
2022-10-23T02:16:16.341Z,4.93
2022-10-23T02:18:32.666Z,3.20
2022-10-23T02:20:41.455Z,2.60
2022-10-23T02:22:52.912Z,4.10
2022-10-23T02:25:04.141Z,3.50
2022-10-23T02:27:13.344Z,6.20
2022-10-23T02:29:21.965Z,4.23
2022-10-23T02:31:26.978Z,3.10
2022-10-23T02:33:31.859Z,4.13
2022-10-23T02:35:35.333Z,3.07
2022-10-23T02:37:54.265Z,4.43
2022-10-23T02:40:01.384Z,344.17
2022-10-23T02:42:20.359Z,337.83
2022-10-23T02:44:37.379Z,4.90
2022-10-23T02:46:53.060Z,6.00
2022-10-23T02:49:08.655Z,45.03
2022-10-23T02:51:19.853Z,147.53
2022-10-23T02:53:31.605Z,271.67
2022-10-23T02:55:44.505Z,22.60
2022-10-23T02:57:54.955Z,57.10
2022-10-23T03:00:04.452Z,191.20
2022-10-23T03:02:18.001Z,2.80
2022-10-23T03:04:24.977Z,465.30
2022-10-23T03:06:28.734Z,12.30
2022-10-23T03:08:43.137Z,217.17
2022-10-23T03:10:46.518Z,433.20
2022-10-23T03:12:51.267Z,459.38
2022-10-23T03:14:55.133Z,484.83
2022-10-23T03:17:00.558Z,558.63
2022-10-23T03:19:05.571Z,562.63
2022-10-23T03:21:09.318Z,469.80
2022-10-23T03:23:14.303Z,473.40
2022-10-23T03:25:17.799Z,493.38
2022-10-23T03:27:22.708Z,473.73
2022-10-23T03:29:26.168Z,481.75
2022-10-23T03:31:29.594Z,514.03
2022-10-23T03:33:35.415Z,475.83
2022-10-23T03:37:51.844Z,499.05
2022-10-23T03:39:55.236Z,482.42
2022-10-23T03:41:58.894Z,478.98
2022-10-23T03:44:02.277Z,465.25
2022-10-23T03:46:09.160Z,555.67
2022-10-23T03:48:12.696Z,492.02
2022-10-23T03:50:16.200Z,475.27
2022-10-23T03:52:21.069Z,468.38
2022-10-23T03:54:29.716Z,510.67
2022-10-23T03:56:33.020Z,480.27
2022-10-23T03:58:36.486Z,497.75
2022-10-23T04:00:39.845Z,492.25
2022-10-23T04:02:44.843Z,469.40
2022-10-23T04:04:48.939Z,494.10
2022-10-23T04:06:52.586Z,498.23
2022-10-23T04:08:58.799Z,499.65
2022-10-23T04:11:02.254Z,473.88
2022-10-23T04:13:21.429Z,508.85
2022-10-23T04:15:24.795Z,479.73
2022-10-23T04:19:31.463Z,503.85
2022-10-23T04:21:35.110Z,528.28
2022-10-23T04:23:38.403Z,472.35
2022-10-23T04:28:00.030Z,470.38
2022-10-23T04:30:04.165Z,482.05
2022-10-23T04:32:08.394Z,470.38
2022-10-23T04:34:11.717Z,481.33
2022-10-23T04:36:15.150Z,528.67
2022-10-23T04:38:18.476Z,607.30
2022-10-23T04:40:21.959Z,488.48
2022-10-23T04:42:28.556Z,480.55
2022-10-23T04:44:34.258Z,517.63
2022-10-23T04:46:38.821Z,491.00
2022-10-23T04:48:42.425Z,517.78
2022-10-23T04:51:07.502Z,510.25
2022-10-23T04:53:29.944Z,501.52
2022-10-23T04:55:51.806Z,554.30
2022-10-23T04:58:19.473Z,548.45
2022-10-23T05:00:22.982Z,504.15
2022-10-23T05:02:30.105Z,524.53
2022-10-23T05:04:33.539Z,505.40
2022-10-23T05:07:03.169Z,501.55
2022-10-23T05:09:36.050Z,479.15
2022-10-23T05:11:51.609Z,505.30
2022-10-23T05:13:56.275Z,490.25
2022-10-23T05:15:59.758Z,498.27
2022-10-23T05:18:13.637Z,525.20
2022-10-23T05:20:20.823Z,510.40
2022-10-23T05:22:28.816Z,526.78
2022-10-23T05:24:32.148Z,566.20
2022-10-23T05:26:42.154Z,537.30
2022-10-23T05:28:47.113Z,587.92
2022-10-23T05:30:54.784Z,585.08
2022-10-23T05:33:03.843Z,541.28
2022-10-23T05:35:17.325Z,575.78
2022-10-23T05:37:23.971Z,586.85
2022-10-23T05:39:33.542Z,560.05
2022-10-23T05:41:38.439Z,559.33
2022-10-23T05:43:41.786Z,582.22
2022-10-23T05:46:15.403Z,558.38
2022-10-23T05:48:33.892Z,581.78
2022-10-23T05:50:56.671Z,516.78
2022-10-23T05:53:11.258Z,566.60
2022-10-23T05:55:26.863Z,565.47
2022-10-23T05:57:32.876Z,565.65
2022-10-23T05:59:39.805Z,523.55
2022-10-23T06:01:59.491Z,510.75
2022-10-23T06:04:23.103Z,537.83
2022-10-23T06:06:46.612Z,527.72
2022-10-23T06:08:50.322Z,581.30
2022-10-23T06:10:57.584Z,565.55
2022-10-23T06:13:00.907Z,553.28
2022-10-23T06:15:06.254Z,488.73
2022-10-23T06:17:33.683Z,610.75
2022-10-23T06:19:37.031Z,616.22
2022-10-23T06:21:41.213Z,559.03
2022-10-23T06:23:47.806Z,538.83
2022-10-23T06:26:07.058Z,524.38
2022-10-23T06:28:20.673Z,429.15
2022-10-23T06:30:25.337Z,403.73
2022-10-23T06:32:33.837Z,430.45
2022-10-23T06:34:55.379Z,423.30
2022-10-23T06:36:58.747Z,422.25
2022-10-23T06:39:37.179Z,444.00
2022-10-23T06:41:49.292Z,467.50
2022-10-23T06:46:20.363Z,473.90
2022-10-23T06:48:44.504Z,472.30
2022-10-23T06:50:55.781Z,447.40
2022-10-23T06:53:09.997Z,462.90
2022-10-23T06:55:17.161Z,433.90
2022-10-23T06:57:20.559Z,411.10
2022-10-23T06:59:26.448Z,437.00
2022-10-23T07:01:30.579Z,437.65
2022-10-23T07:03:34.742Z,526.08
2022-10-23T07:05:44.734Z,478.65
2022-10-23T07:07:49.467Z,515.85
2022-10-23T07:09:59.467Z,573.25
2022-10-23T07:12:14.589Z,529.73
2022-10-23T07:14:23.901Z,625.20
2022-10-23T07:16:27.510Z,538.47
2022-10-23T07:18:31.800Z,569.17
2022-10-23T07:20:59.927Z,532.13
2022-10-23T07:23:04.745Z,514.95
2022-10-23T07:25:13.183Z,538.63
2022-10-23T07:27:17.421Z,563.60
2022-10-23T07:29:21.563Z,556.00
2022-10-23T07:31:28.194Z,561.17
2022-10-23T07:33:50.810Z,543.47
2022-10-23T07:35:55.857Z,542.90
2022-10-23T07:38:05.198Z,537.38
2022-10-23T07:40:13.576Z,545.05
2022-10-23T07:42:20.682Z,555.28
2022-10-23T07:44:27.655Z,537.35
2022-10-23T07:46:32.065Z,543.08
2022-10-23T07:48:35.562Z,545.22
2022-10-23T07:50:39.559Z,552.85
2022-10-23T07:52:43.223Z,555.30
2022-10-23T07:54:53.395Z,543.88
2022-10-23T07:56:57.542Z,537.22
2022-10-23T07:59:12.584Z,547.42
2022-10-23T08:01:20.199Z,541.75
2022-10-23T08:03:24.105Z,539.33
2022-10-23T08:05:27.479Z,541.00
2022-10-23T08:07:35.696Z,538.40
2022-10-23T08:09:39.085Z,535.22
2022-10-23T08:11:44.120Z,544.75
2022-10-23T08:13:51.609Z,540.33
2022-10-23T08:15:55.947Z,548.65
2022-10-23T08:18:19.453Z,552.42
2022-10-23T08:20:22.933Z,560.13
2022-10-23T08:22:26.402Z,560.65
2022-10-23T08:24:29.831Z,561.80
2022-10-23T08:26:33.567Z,557.00
2022-10-23T08:28:38.631Z,590.80
2022-10-23T08:30:42.105Z,558.42
2022-10-23T08:32:45.728Z,549.90
2022-10-23T08:34:50.195Z,569.35
2022-10-23T08:36:54.086Z,574.92
2022-10-23T08:38:58.959Z,602.35
2022-10-23T08:41:03.741Z,559.90
2022-10-23T08:43:35.426Z,576.55
2022-10-23T08:45:59.555Z,568.78
2022-10-23T08:48:27.119Z,544.67
2022-10-23T08:51:01.621Z,556.28
2022-10-23T08:53:12.647Z,580.97
2022-10-23T08:55:18.994Z,558.10
2022-10-23T08:57:26.700Z,562.45
2022-10-23T08:59:37.974Z,581.90
2022-10-23T09:01:46.966Z,561.80
2022-10-23T09:03:50.450Z,572.58
2022-10-23T09:06:05.902Z,551.28
2022-10-23T09:08:23.799Z,551.85
2022-10-23T09:10:38.831Z,554.95
2022-10-23T09:12:43.316Z,551.45
2022-10-23T09:15:15.970Z,552.63
2022-10-23T09:17:28.341Z,551.40
2022-10-23T09:19:32.082Z,564.55
2022-10-23T09:21:37.347Z,557.33
2022-10-23T09:23:40.926Z,557.17
2022-10-23T09:25:45.730Z,567.70
2022-10-23T09:27:53.224Z,560.65
2022-10-23T09:29:59.408Z,557.78
2022-10-23T09:32:05.117Z,555.60
2022-10-23T09:34:21.767Z,563.77
2022-10-23T09:36:29.007Z,559.17
2022-10-23T09:38:35.377Z,553.15
2022-10-23T09:40:41.807Z,557.60
2022-10-23T09:42:53.708Z,560.25
2022-10-23T09:44:57.828Z,558.47
2022-10-23T09:47:11.984Z,560.65
2022-10-23T09:49:22.737Z,565.65
2022-10-23T09:51:26.161Z,563.72
2022-10-23T09:53:35.519Z,581.75
2022-10-23T09:55:39.197Z,561.97
2022-10-23T09:57:45.000Z,554.15
2022-10-23T09:59:53.882Z,564.97
2022-10-23T10:01:59.865Z,559.42
2022-10-23T10:04:37.314Z,562.05
2022-10-23T10:08:50.041Z,553.97
2022-10-23T10:10:56.641Z,564.10
2022-10-23T10:13:11.954Z,557.63
2022-10-23T10:15:27.826Z,556.53
2022-10-23T10:17:39.182Z,562.27
2022-10-23T10:20:05.278Z,580.65
2022-10-23T10:22:22.720Z,579.40
2022-10-23T10:24:33.381Z,564.77
2022-10-23T10:26:45.325Z,559.13
2022-10-23T10:29:01.000Z,566.05
2022-10-23T10:31:15.859Z,584.87
2022-10-23T10:33:26.539Z,558.60
2022-10-23T10:35:43.891Z,554.85
2022-10-23T10:38:02.908Z,572.50
2022-10-23T10:40:17.456Z,580.30
2022-10-23T10:42:38.686Z,563.37
2022-10-23T10:44:52.834Z,588.70
2022-10-23T10:47:00.383Z,558.17
2022-10-23T10:49:17.626Z,561.90
2022-10-23T10:51:54.539Z,580.87
2022-10-23T10:54:13.326Z,564.30
2022-10-23T10:56:19.785Z,599.47
2022-10-23T10:58:31.274Z,560.43
2022-10-23T11:00:35.375Z,561.07
2022-10-23T11:02:45.465Z,571.33
2022-10-23T11:04:53.789Z,562.37
2022-10-23T11:07:00.791Z,564.90
2022-10-23T11:09:20.619Z,599.93
2022-10-23T11:11:29.939Z,558.87
2022-10-23T11:13:36.984Z,612.53
2022-10-23T11:15:43.944Z,559.67
2022-10-23T11:17:51.866Z,557.97
2022-10-23T11:20:03.665Z,557.00
2022-10-23T11:22:13.328Z,589.03
2022-10-23T11:24:58.699Z,555.70
2022-10-23T11:27:31.010Z,584.30
2022-10-23T11:29:51.662Z,596.40
2022-10-23T11:32:08.325Z,559.57
2022-10-23T11:34:39.344Z,557.00
2022-10-23T11:36:47.804Z,570.00
2022-10-23T11:38:53.797Z,575.47
2022-10-23T11:41:00.883Z,557.73
2022-10-23T11:43:04.284Z,557.33
2022-10-23T11:45:29.724Z,568.37
2022-10-23T11:47:39.644Z,582.63
2022-10-23T11:49:43.772Z,558.67
2022-10-23T11:51:47.072Z,556.23
2022-10-23T11:53:51.999Z,551.07
2022-10-23T11:56:06.612Z,549.20
2022-10-23T11:58:31.454Z,559.83
2022-10-23T12:00:36.399Z,556.47
2022-10-23T12:02:43.373Z,565.77
2022-10-23T12:04:49.862Z,584.87
2022-10-23T12:06:56.742Z,626.53
2022-10-23T12:09:05.909Z,597.73
2022-10-23T12:11:27.765Z,613.43
2022-10-23T12:13:45.403Z,609.63
2022-10-23T12:15:57.134Z,587.70
2022-10-23T12:18:15.507Z,582.53
2022-10-23T12:20:37.830Z,588.03
2022-10-23T12:22:48.373Z,584.50
2022-10-23T12:25:04.322Z,612.93
2022-10-23T12:27:17.660Z,613.47
2022-10-23T12:29:35.904Z,594.33
2022-10-23T12:31:52.365Z,593.23
2022-10-23T12:34:06.469Z,584.37
2022-10-23T12:36:23.779Z,596.03
2022-10-23T12:38:33.870Z,612.83
2022-10-23T12:40:41.047Z,622.77
2022-10-23T12:42:52.228Z,5.77
2022-10-23T12:45:00.157Z,2.80
2022-10-23T12:47:05.058Z,12.50
2022-10-23T12:49:15.722Z,3.27
2022-10-23T12:51:24.513Z,62.33
2022-10-23T12:53:27.819Z,3.23
2022-10-23T12:55:46.596Z,1.60
2022-10-23T12:57:51.938Z,13.40
2022-10-23T12:59:58.908Z,2.67
2022-10-23T13:02:02.421Z,5.17
2022-10-23T13:04:13.525Z,5.33
2022-10-23T13:06:17.268Z,1.87
2022-10-23T13:08:22.705Z,2.17
2022-10-23T13:10:46.668Z,3.40
2022-10-23T13:12:59.290Z,3.03
2022-10-23T13:15:14.950Z,5.30
2022-10-23T13:17:18.254Z,2.50
2022-10-23T13:19:26.935Z,5.20
2022-10-23T13:21:32.423Z,4.43
2022-10-23T13:23:37.066Z,5.87
2022-10-23T13:25:41.241Z,6.40
2022-10-23T13:27:44.968Z,1.83
2022-10-23T13:29:49.816Z,2.87
2022-10-23T13:31:53.413Z,8.50
2022-10-23T13:34:23.297Z,4.20
2022-10-23T13:36:30.113Z,5.07
2022-10-23T13:38:39.533Z,5.40
2022-10-23T13:40:44.457Z,2.10
2022-10-23T13:42:49.668Z,4.80
2022-10-23T13:44:54.361Z,3.10
2022-10-23T13:46:57.701Z,2.30
2022-10-23T13:49:01.144Z,5.43
2022-10-23T13:51:13.610Z,5.07
2022-10-23T13:53:17.303Z,8.90
2022-10-23T13:55:24.106Z,10.93
2022-10-23T13:57:27.478Z,3.80
2022-10-23T13:59:30.822Z,2.60
2022-10-23T14:01:36.363Z,3.63
2022-10-23T14:03:39.729Z,6.70
2022-10-23T14:05:43.045Z,3.40
2022-10-23T14:07:46.914Z,2.90
2022-10-23T14:09:50.700Z,2.17
2022-10-23T14:11:54.120Z,3.73
2022-10-23T14:13:57.503Z,3.10
2022-10-23T14:16:00.989Z,3.20
2022-10-23T14:18:08.257Z,6.57
2022-10-23T14:20:12.850Z,3.70
2022-10-23T14:22:16.177Z,3.23
2022-10-23T14:24:19.549Z,2.67
2022-10-23T14:26:27.508Z,2.33
2022-10-23T14:28:30.900Z,2.63
2022-10-23T14:30:34.270Z,3.00
2022-10-23T14:32:37.592Z,2.00
2022-10-23T14:34:45.799Z,2.20
2022-10-23T14:36:50.328Z,4.90
2022-10-23T14:39:00.487Z,2.57
2022-10-23T14:41:10.170Z,12.97
2022-10-23T14:43:13.482Z,7.00
2022-10-23T14:45:17.069Z,2.97
2022-10-23T14:47:20.709Z,6.63
2022-10-23T14:49:24.176Z,13.63
2022-10-23T14:51:30.862Z,5.07
2022-10-23T14:53:34.212Z,2.43
2022-10-23T14:55:37.573Z,2.40
2022-10-23T14:57:41.069Z,2.37
2022-10-23T14:59:45.057Z,6.20
2022-10-23T15:01:48.808Z,2.03
2022-10-23T15:03:55.790Z,2.97
2022-10-23T15:05:59.117Z,2.13
2022-10-23T15:08:03.755Z,3.90
2022-10-23T15:10:09.083Z,2.80
2022-10-23T15:12:12.622Z,7.90
2022-10-23T15:14:15.949Z,6.00
2022-10-23T15:16:19.404Z,4.90
2022-10-23T15:18:22.720Z,3.17
2022-10-23T15:20:26.106Z,2.93
2022-10-23T15:22:29.497Z,2.80
2022-10-23T15:24:34.201Z,4.80
2022-10-23T15:26:38.388Z,2.67
2022-10-23T15:28:41.702Z,3.03
2022-10-23T15:30:45.602Z,2.00
2022-10-23T15:32:48.975Z,10.20
2022-10-23T15:34:53.712Z,7.10
2022-10-23T15:36:58.598Z,3.50
2022-10-23T15:39:02.603Z,15.97
2022-10-23T15:41:16.609Z,3.50
2022-10-23T15:43:19.982Z,2.27
2022-10-23T15:45:25.567Z,7.67
2022-10-23T15:47:31.479Z,2.53
2022-10-23T15:49:35.001Z,3.40
2022-10-23T15:51:39.251Z,4.60
2022-10-23T15:53:42.526Z,4.33
2022-10-23T15:55:46.044Z,2.40
2022-10-23T15:57:50.941Z,2.83
2022-10-23T15:59:54.309Z,2.70
2022-10-23T16:01:58.740Z,2.33
2022-10-23T16:04:02.100Z,10.07
2022-10-23T16:06:06.309Z,7.60
2022-10-23T16:08:09.770Z,3.97
2022-10-23T16:10:13.096Z,4.80
2022-10-23T16:12:17.127Z,5.70
2022-10-23T16:14:21.788Z,3.63
2022-10-23T16:16:25.892Z,6.10
2022-10-23T16:18:29.839Z,5.00
2022-10-23T16:20:33.127Z,3.17
2022-10-23T16:22:39.028Z,2.70
2022-10-23T16:24:43.718Z,2.13
2022-10-23T16:26:51.731Z,2.47
2022-10-23T16:28:55.938Z,2.53
2022-10-23T16:31:00.911Z,2.50
2022-10-23T16:33:04.438Z,5.50
2022-10-23T16:35:11.009Z,3.70
2022-10-23T16:37:28.211Z,4.73
2022-10-23T16:39:37.631Z,8.23
2022-10-23T16:42:10.146Z,14.87
2022-10-23T16:44:34.973Z,12.50
2022-10-23T16:46:42.733Z,4.53
2022-10-23T16:48:46.354Z,11.00
2022-10-23T16:50:49.664Z,12.67
2022-10-23T16:52:55.514Z,7.00
2022-10-23T16:54:59.433Z,6.83
2022-10-23T16:57:02.875Z,3.70
2022-10-23T16:59:06.507Z,4.37
2022-10-23T17:01:13.622Z,3.43
2022-10-23T17:03:18.524Z,4.43
2022-10-23T17:05:21.838Z,5.23
2022-10-23T17:07:25.173Z,4.87
2022-10-23T17:09:31.169Z,5.37
2022-10-23T17:11:36.872Z,4.20
2022-10-23T17:13:43.581Z,6.00
2022-10-23T17:15:46.904Z,4.43
2022-10-23T17:17:50.412Z,6.27
2022-10-23T17:19:55.166Z,3.50
2022-10-23T17:22:00.856Z,5.33
2022-10-23T17:24:05.115Z,4.90
2022-10-23T17:26:09.692Z,5.80
2022-10-23T17:28:13.026Z,5.57
2022-10-23T17:30:16.355Z,3.67
2022-10-23T17:34:24.885Z,4.80
2022-10-23T17:36:31.401Z,4.83
2022-10-23T17:38:36.886Z,6.97
2022-10-23T17:40:40.824Z,6.60
2022-10-23T17:42:44.376Z,3.50
2022-10-23T17:44:48.075Z,10.07
2022-10-23T17:46:53.767Z,4.47
2022-10-23T17:48:59.277Z,3.63
2022-10-23T17:51:04.314Z,4.57
2022-10-23T17:53:09.098Z,3.77
2022-10-23T17:55:12.530Z,5.20
2022-10-23T17:57:15.846Z,8.63
2022-10-23T17:59:19.963Z,8.43
2022-10-23T18:01:26.319Z,5.30
2022-10-23T18:03:29.898Z,4.60
2022-10-23T18:05:33.850Z,6.63
2022-10-23T18:07:37.206Z,4.97
2022-10-23T18:09:41.945Z,5.87
2022-10-23T18:11:48.454Z,6.70
2022-10-23T18:13:53.033Z,4.13
2022-10-23T18:15:56.378Z,6.80
2022-10-23T18:17:59.705Z,8.23
2022-10-23T18:20:03.094Z,3.57
2022-10-23T18:22:06.693Z,4.57
2022-10-23T18:24:10.790Z,3.80
2022-10-23T18:26:17.742Z,4.13
2022-10-23T18:28:21.116Z,7.80
2022-10-23T18:30:24.394Z,3.20
2022-10-23T18:32:27.866Z,5.83
2022-10-23T18:34:31.194Z,3.67
2022-10-23T18:36:36.762Z,4.30
2022-10-23T18:38:40.103Z,4.13
2022-10-23T18:40:44.902Z,3.90
2022-10-23T18:42:50.252Z,5.20
2022-10-23T18:44:53.697Z,5.73
2022-10-23T18:46:57.521Z,4.37
2022-10-23T18:49:00.926Z,3.90
2022-10-23T18:51:04.478Z,3.20
2022-10-23T18:53:08.038Z,3.50
2022-10-23T18:55:12.853Z,4.43
2022-10-23T18:57:16.215Z,2.97
2022-10-23T18:59:22.255Z,5.67
2022-10-23T19:01:27.470Z,6.23
2022-10-23T19:03:33.026Z,3.63
2022-10-23T19:05:36.359Z,5.60
2022-10-23T19:07:44.870Z,4.13
2022-10-23T19:09:48.674Z,3.93
2022-10-23T19:11:52.055Z,2.70
2022-10-23T19:13:55.423Z,5.00
2022-10-23T19:16:00.369Z,5.53
2022-10-23T19:18:06.654Z,5.50
2022-10-23T19:20:14.820Z,7.60
2022-10-23T19:22:18.828Z,2.90
2022-10-23T19:24:28.670Z,4.10
2022-10-23T19:26:35.459Z,3.50
2022-10-23T19:28:40.620Z,5.37
2022-10-23T19:30:44.151Z,3.97
2022-10-23T19:32:49.507Z,2.83
2022-10-23T19:34:52.861Z,4.03
2022-10-23T19:36:56.336Z,8.03
2022-10-23T19:38:59.739Z,5.53
2022-10-23T19:41:03.812Z,4.20
2022-10-23T19:43:07.166Z,3.00
2022-10-23T19:45:12.696Z,3.83
2022-10-23T19:47:16.109Z,4.50
2022-10-23T19:49:23.749Z,3.30
2022-10-23T19:51:29.571Z,4.33
2022-10-23T19:53:33.683Z,2.67
2022-10-23T19:55:37.322Z,2.90
2022-10-23T19:57:40.808Z,2.40
2022-10-23T19:59:44.405Z,4.13
2022-10-23T20:01:49.408Z,2.40
2022-10-23T20:03:55.350Z,3.50
2022-10-23T20:06:00.090Z,5.80
2022-10-23T20:08:03.423Z,2.53
2022-10-23T20:10:08.314Z,2.97
2022-10-23T20:12:11.683Z,3.10
2022-10-23T20:14:14.992Z,3.93
2022-10-23T20:16:19.771Z,3.53
2022-10-23T20:18:25.971Z,3.40
2022-10-23T20:20:29.244Z,4.77
2022-10-23T20:22:33.911Z,3.20
2022-10-23T20:24:37.380Z,4.90
2022-10-23T20:26:41.742Z,4.63
2022-10-23T20:28:47.025Z,5.77
2022-10-23T20:30:50.417Z,4.13
2022-10-23T20:32:53.739Z,4.43
2022-10-23T20:34:57.075Z,3.00
2022-10-23T20:37:00.627Z,10.00
2022-10-23T20:39:07.084Z,6.33
2022-10-23T20:41:10.408Z,5.10
2022-10-23T20:43:13.856Z,3.77
2022-10-23T20:45:17.212Z,9.17
2022-10-23T20:47:21.084Z,5.50
2022-10-23T20:49:25.028Z,4.57
2022-10-23T20:51:28.527Z,3.50
2022-10-23T20:53:31.862Z,4.90
2022-10-23T20:55:41.067Z,6.97
2022-10-23T20:57:44.673Z,4.43
2022-10-23T20:59:48.288Z,7.40
2022-10-23T21:01:53.880Z,4.20
2022-10-23T21:03:58.855Z,7.83
2022-10-23T21:06:06.418Z,5.53
2022-10-23T21:08:09.804Z,4.27
2022-10-23T21:10:13.107Z,4.07
2022-10-23T21:12:17.885Z,3.80
2022-10-23T21:14:21.218Z,3.53
2022-10-23T21:16:28.542Z,8.33
2022-10-23T21:18:45.620Z,3.43
2022-10-23T21:20:50.235Z,6.80
2022-10-23T21:22:55.394Z,3.93
2022-10-23T21:25:00.525Z,3.93
2022-10-23T21:27:03.838Z,3.77
2022-10-23T21:29:21.112Z,2.60
2022-10-23T21:31:25.431Z,6.53
2022-10-23T21:33:29.634Z,9.90
2022-10-23T21:35:33.116Z,4.87
2022-10-23T21:37:36.537Z,5.43
2022-10-23T21:39:39.956Z,7.47
2022-10-23T21:41:43.280Z,7.03
2022-10-23T21:43:47.286Z,4.87
2022-10-23T21:45:54.348Z,5.50
2022-10-23T21:47:58.880Z,4.13
2022-10-23T21:50:02.181Z,8.90
2022-10-23T21:52:05.530Z,4.60
2022-10-23T21:54:12.728Z,5.37
2022-10-23T21:56:26.428Z,5.83
2022-10-23T21:58:29.916Z,6.03
2022-10-23T22:00:33.211Z,5.53
2022-10-23T22:02:38.006Z,7.23
2022-10-23T22:04:41.705Z,6.00
2022-10-23T22:06:45.917Z,4.20
2022-10-23T22:08:49.358Z,6.17
2022-10-23T22:10:52.673Z,5.00
2022-10-23T22:12:56.045Z,4.53
2022-10-23T22:14:59.801Z,9.80
2022-10-23T22:17:03.863Z,5.70
2022-10-23T22:19:11.538Z,5.30
2022-10-23T22:21:18.873Z,8.40
2022-10-23T22:23:22.258Z,7.30
2022-10-23T22:25:25.589Z,4.40
2022-10-23T22:27:29.316Z,5.53
2022-10-23T22:29:33.151Z,6.33
2022-10-23T22:31:37.452Z,7.40
2022-10-23T22:33:40.826Z,4.70
2022-10-23T22:35:45.460Z,8.70
2022-10-23T22:37:48.805Z,6.07
2022-10-23T22:39:52.833Z,3.50
2022-10-23T22:41:56.131Z,5.50
2022-10-23T22:44:00.433Z,5.83
2022-10-23T22:46:05.408Z,5.50
2022-10-23T22:48:09.198Z,4.60
2022-10-23T22:50:12.578Z,5.70
2022-10-23T22:52:17.181Z,6.20
2022-10-23T22:54:20.490Z,5.80
2022-10-23T22:56:25.983Z,6.30
2022-10-23T22:58:29.295Z,5.53
2022-10-23T23:00:32.739Z,8.00
2022-10-23T23:02:36.046Z,6.00
2022-10-23T23:04:39.681Z,6.60
2022-10-23T23:06:43.096Z,4.00
2022-10-23T23:08:48.782Z,6.73
2022-10-23T23:10:56.190Z,5.20
2022-10-23T23:12:59.560Z,7.73
2022-10-23T23:15:02.828Z,5.70
2022-10-23T23:17:07.539Z,4.60
2022-10-23T23:19:12.283Z,7.20
2022-10-23T23:21:16.414Z,7.20
2022-10-23T23:23:20.120Z,4.67
2022-10-23T23:25:24.730Z,5.00
2022-10-23T23:27:28.132Z,8.50
2022-10-23T23:29:31.469Z,5.50
2022-10-23T23:31:34.767Z,4.30
2022-10-23T23:33:38.205Z,6.60
2022-10-23T23:35:42.143Z,4.57
2022-10-23T23:37:45.874Z,7.13
2022-10-23T23:39:49.167Z,5.77
2022-10-23T23:41:53.971Z,8.17
2022-10-23T23:43:59.484Z,7.40
2022-10-23T23:46:02.920Z,7.07
2022-10-23T23:48:07.878Z,13.27
2022-10-23T23:50:12.532Z,8.07
2022-10-23T23:52:15.800Z,5.57
2022-10-23T23:54:19.226Z,3.50
2022-10-23T23:56:22.851Z,6.30
2022-10-23T23:58:27.495Z,5.53
